N753OZ KVAY-K2W6
Flight info
| Callsign | N753OZ |
|---|---|
| Flight time | N/A |
| Altitude | 16000 |
| Route | ENZEW CANNY PRNCZ QUENS |
| Aircraft | CL30/M-SDFGRW/S |
Departure
| Time | 2026-04-12 05:44 |
|---|---|
| Airport | South Jersey Regional Airport (KVAY) |
Arrival
| Time | N/A |
|---|---|
| Airport | K2W6 |
| Time | Latitude | Longitude | Altitude | Speed | Heading |
|---|---|---|---|---|---|
| 2026-04-12 05:37 | 39.94051 | -74.84358 | 47 ft | 0 kts | 160° |
| 2026-04-12 05:40 | 39.94040 | -74.84327 | 47 ft | 5 kts | 43° |
| 2026-04-12 05:40 | 39.94085 | -74.84338 | 47 ft | 11 kts | 342° |
| 2026-04-12 05:41 | 39.94157 | -74.84373 | 46 ft | 8 kts | 339° |
| 2026-04-12 05:41 | 39.94198 | -74.84394 | 46 ft | 3 kts | 340° |
| 2026-04-12 05:41 | 39.94232 | -74.84410 | 45 ft | 8 kts | 340° |
| 2026-04-12 05:41 | 39.94276 | -74.84431 | 45 ft | 6 kts | 340° |
| 2026-04-12 05:42 | 39.94326 | -74.84369 | 45 ft | 14 kts | 70° |
| 2026-04-12 05:42 | 39.94358 | -74.84255 | 48 ft | 14 kts | 69° |
| 2026-04-12 05:42 | 39.94397 | -74.84110 | 51 ft | 16 kts | 71° |
| 2026-04-12 05:43 | 39.94478 | -74.83949 | 52 ft | 7 kts | 126° |
| 2026-04-12 05:43 | 39.94456 | -74.83981 | 52 ft | 19 kts | 249° |
| 2026-04-12 05:43 | 39.94283 | -74.84601 | 43 ft | 129 kts | 250° |
| 2026-04-12 05:43 | 39.93889 | -74.85972 | 644 ft | 187 kts | 251° |
| 2026-04-12 05:44 | 39.93342 | -74.87610 | 1936 ft | 218 kts | 234° |
| 2026-04-12 05:44 | 39.92179 | -74.88846 | 3481 ft | 239 kts | 221° |
| 2026-04-12 05:44 | 39.90793 | -74.90149 | 4946 ft | 260 kts | 220° |
| 2026-04-12 05:44 | 39.89366 | -74.91479 | 6631 ft | 267 kts | 221° |
| 2026-04-12 05:45 | 39.87884 | -74.92860 | 8248 ft | 274 kts | 221° |
| 2026-04-12 05:45 | 39.86341 | -74.94295 | 9782 ft | 282 kts | 221° |
| 2026-04-12 05:45 | 39.84781 | -74.95747 | 11209 ft | 288 kts | 221° |
| 2026-04-12 05:45 | 39.83150 | -74.97263 | 12599 ft | 294 kts | 221° |
| 2026-04-12 05:46 | 39.81504 | -74.98792 | 13936 ft | 299 kts | 222° |
| 2026-04-12 05:46 | 39.79823 | -75.00349 | 15184 ft | 305 kts | 222° |
| 2026-04-12 05:46 | 39.78060 | -75.01988 | 15960 ft | 322 kts | 222° |
| 2026-04-12 05:46 | 39.76204 | -75.03711 | 16002 ft | 341 kts | 221° |
| 2026-04-12 05:47 | 39.74222 | -75.05547 | 16006 ft | 360 kts | 221° |
| 2026-04-12 05:47 | 39.72148 | -75.07463 | 16005 ft | 372 kts | 221° |
| 2026-04-12 05:47 | 39.70022 | -75.09426 | 16003 ft | 381 kts | 220° |
| 2026-04-12 05:47 | 39.67857 | -75.11423 | 16000 ft | 383 kts | 220° |
| 2026-04-12 05:48 | 39.65683 | -75.13428 | 15998 ft | 383 kts | 220° |
| 2026-04-12 05:48 | 39.63505 | -75.15435 | 15988 ft | 384 kts | 220° |
| 2026-04-12 05:48 | 39.61328 | -75.17441 | 15980 ft | 384 kts | 220° |
| 2026-04-12 05:48 | 39.59166 | -75.19432 | 15980 ft | 384 kts | 220° |
| 2026-04-12 05:49 | 39.56988 | -75.21435 | 15979 ft | 384 kts | 220° |
| 2026-04-12 05:49 | 39.54809 | -75.23438 | 15981 ft | 384 kts | 220° |
| 2026-04-12 05:49 | 39.52639 | -75.25433 | 15980 ft | 384 kts | 220° |
| 2026-04-12 05:49 | 39.50481 | -75.27418 | 15980 ft | 384 kts | 220° |
| 2026-04-12 05:50 | 39.48308 | -75.29410 | 15980 ft | 384 kts | 220° |
| 2026-04-12 05:50 | 39.46143 | -75.31393 | 15980 ft | 384 kts | 220° |
| 2026-04-12 05:50 | 39.43948 | -75.33403 | 15980 ft | 384 kts | 220° |
| 2026-04-12 05:50 | 39.41792 | -75.35375 | 15981 ft | 384 kts | 220° |
| 2026-04-12 05:51 | 39.39619 | -75.37360 | 15980 ft | 384 kts | 220° |
| 2026-04-12 05:51 | 39.37427 | -75.39363 | 15979 ft | 384 kts | 220° |
| 2026-04-12 05:51 | 39.35260 | -75.41341 | 15979 ft | 383 kts | 220° |
| 2026-04-12 05:51 | 39.33095 | -75.43316 | 15979 ft | 383 kts | 220° |
| 2026-04-12 05:52 | 39.30918 | -75.45300 | 15979 ft | 383 kts | 220° |
| 2026-04-12 05:52 | 39.28738 | -75.47285 | 15986 ft | 383 kts | 220° |
| 2026-04-12 05:52 | 39.26571 | -75.49256 | 15989 ft | 383 kts | 220° |
| 2026-04-12 05:52 | 39.24407 | -75.51225 | 15988 ft | 383 kts | 220° |
| 2026-04-12 05:53 | 39.22217 | -75.53216 | 15989 ft | 383 kts | 220° |
| 2026-04-12 05:53 | 39.20042 | -75.55190 | 15989 ft | 383 kts | 220° |
| 2026-04-12 05:53 | 39.17863 | -75.57166 | 15989 ft | 384 kts | 220° |
| 2026-04-12 05:53 | 39.15713 | -75.59115 | 15989 ft | 384 kts | 220° |
| 2026-04-12 05:54 | 39.13528 | -75.61095 | 15976 ft | 384 kts | 220° |
| 2026-04-12 05:54 | 39.11335 | -75.63079 | 15962 ft | 384 kts | 220° |
| 2026-04-12 05:54 | 39.09158 | -75.65048 | 15961 ft | 384 kts | 219° |
| 2026-04-12 05:54 | 39.06972 | -75.67023 | 15989 ft | 384 kts | 219° |
| 2026-04-12 05:55 | 39.04820 | -75.69032 | 15994 ft | 383 kts | 220° |
| 2026-04-12 05:55 | 39.02679 | -75.71054 | 15971 ft | 384 kts | 220° |
| 2026-04-12 05:55 | 39.00510 | -75.73103 | 15967 ft | 385 kts | 220° |
| 2026-04-12 05:55 | 38.98368 | -75.75124 | 15965 ft | 378 kts | 220° |
| 2026-04-12 05:56 | 38.96287 | -75.77089 | 15643 ft | 368 kts | 220° |
| 2026-04-12 05:56 | 38.94253 | -75.79006 | 15270 ft | 361 kts | 220° |
| 2026-04-12 05:56 | 38.92267 | -75.80876 | 14899 ft | 354 kts | 220° |
| 2026-04-12 05:56 | 38.90298 | -75.82731 | 14525 ft | 348 kts | 220° |
| 2026-04-12 05:57 | 38.88375 | -75.84540 | 14149 ft | 342 kts | 220° |
| 2026-04-12 05:57 | 38.86469 | -75.86333 | 13771 ft | 337 kts | 220° |
| 2026-04-12 05:57 | 38.84604 | -75.88085 | 13394 ft | 332 kts | 220° |
| 2026-04-12 05:57 | 38.82749 | -75.89828 | 13013 ft | 327 kts | 220° |
| 2026-04-12 05:58 | 38.80942 | -75.91524 | 12637 ft | 322 kts | 220° |
| 2026-04-12 05:58 | 38.79142 | -75.93213 | 12257 ft | 318 kts | 220° |
| 2026-04-12 05:58 | 38.77382 | -75.94862 | 11880 ft | 313 kts | 220° |
| 2026-04-12 05:58 | 38.75636 | -75.96498 | 11502 ft | 309 kts | 220° |
| 2026-04-12 05:59 | 38.73923 | -75.98104 | 11123 ft | 305 kts | 220° |
| 2026-04-12 05:59 | 38.72231 | -75.99687 | 10765 ft | 300 kts | 220° |
| 2026-04-12 05:59 | 38.70561 | -76.01248 | 10497 ft | 292 kts | 220° |
| 2026-04-12 05:59 | 38.68964 | -76.02740 | 10244 ft | 285 kts | 220° |
| 2026-04-12 06:00 | 38.67375 | -76.04224 | 9921 ft | 281 kts | 220° |
| 2026-04-12 06:00 | 38.65804 | -76.05692 | 9591 ft | 277 kts | 220° |
| 2026-04-12 06:00 | 38.64263 | -76.07130 | 9263 ft | 272 kts | 220° |
| 2026-04-12 06:00 | 38.62761 | -76.08533 | 8937 ft | 268 kts | 220° |
| 2026-04-12 06:01 | 38.61257 | -76.09933 | 8606 ft | 264 kts | 220° |
| 2026-04-12 06:01 | 38.59786 | -76.11304 | 8277 ft | 260 kts | 220° |
| 2026-04-12 06:01 | 38.58347 | -76.12643 | 7951 ft | 256 kts | 220° |
| 2026-04-12 06:01 | 38.56923 | -76.13968 | 7622 ft | 252 kts | 220° |
| 2026-04-12 06:02 | 38.55521 | -76.15273 | 7293 ft | 248 kts | 220° |
| 2026-04-12 06:02 | 38.54148 | -76.16550 | 6966 ft | 244 kts | 220° |
| 2026-04-12 06:02 | 38.52784 | -76.17817 | 6567 ft | 243 kts | 220° |
| 2026-04-12 06:02 | 38.51419 | -76.19087 | 6142 ft | 242 kts | 220° |
| 2026-04-12 06:03 | 38.50082 | -76.20327 | 5766 ft | 238 kts | 220° |
| 2026-04-12 06:03 | 38.48749 | -76.21564 | 5387 ft | 235 kts | 220° |
| 2026-04-12 06:03 | 38.47441 | -76.22779 | 5010 ft | 233 kts | 220° |
| 2026-04-12 06:03 | 38.46143 | -76.23981 | 4634 ft | 230 kts | 219° |
| 2026-04-12 06:04 | 38.44848 | -76.25183 | 4256 ft | 228 kts | 219° |
| 2026-04-12 06:04 | 38.43587 | -76.26355 | 3884 ft | 226 kts | 218° |
| 2026-04-12 06:04 | 38.42311 | -76.27515 | 3504 ft | 225 kts | 213° |
| 2026-04-12 06:04 | 38.40823 | -76.28130 | 3202 ft | 222 kts | 196° |
| 2026-04-12 06:05 | 38.39362 | -76.28589 | 2949 ft | 215 kts | 195° |
| 2026-04-12 06:05 | 38.37931 | -76.29023 | 2694 ft | 210 kts | 195° |
| 2026-04-12 06:05 | 38.36530 | -76.29439 | 2439 ft | 204 kts | 194° |
| 2026-04-12 06:05 | 38.35165 | -76.29838 | 2185 ft | 200 kts | 194° |
| 2026-04-12 06:06 | 38.33817 | -76.30228 | 2010 ft | 198 kts | 194° |
| 2026-04-12 06:06 | 38.32475 | -76.30611 | 1998 ft | 195 kts | 194° |
| 2026-04-12 06:06 | 38.31181 | -76.30981 | 1996 ft | 191 kts | 194° |
| 2026-04-12 06:06 | 38.29907 | -76.31345 | 1996 ft | 187 kts | 194° |
| 2026-04-12 06:07 | 38.28716 | -76.31929 | 1988 ft | 179 kts | 224° |
| 2026-04-12 06:07 | 38.28159 | -76.33250 | 2002 ft | 168 kts | 267° |
| 2026-04-12 06:07 | 38.28254 | -76.34697 | 2004 ft | 163 kts | 281° |
| 2026-04-12 06:07 | 38.28429 | -76.36117 | 2000 ft | 163 kts | 282° |
| 2026-04-12 06:08 | 38.28626 | -76.37533 | 1999 ft | 163 kts | 283° |
| 2026-04-12 06:08 | 38.28838 | -76.38946 | 1999 ft | 162 kts | 284° |
| 2026-04-12 06:08 | 38.29063 | -76.40350 | 1999 ft | 162 kts | 284° |
| 2026-04-12 06:08 | 38.29288 | -76.41766 | 1999 ft | 161 kts | 284° |
| 2026-04-12 06:09 | 38.29516 | -76.43178 | 1893 ft | 163 kts | 284° |
| 2026-04-12 06:09 | 38.29739 | -76.44542 | 1711 ft | 157 kts | 284° |
| 2026-04-12 06:09 | 38.29962 | -76.45869 | 1536 ft | 149 kts | 284° |
| 2026-04-12 06:09 | 38.30177 | -76.47121 | 1309 ft | 139 kts | 284° |
| 2026-04-12 06:10 | 38.30375 | -76.48278 | 1104 ft | 130 kts | 284° |
| 2026-04-12 06:10 | 38.30566 | -76.49384 | 940 ft | 126 kts | 284° |
| 2026-04-12 06:10 | 38.30755 | -76.50472 | 761 ft | 122 kts | 284° |
| 2026-04-12 06:10 | 38.30934 | -76.51513 | 595 ft | 119 kts | 283° |
| 2026-04-12 06:11 | 38.31108 | -76.52539 | 434 ft | 117 kts | 283° |
| 2026-04-12 06:11 | 38.31293 | -76.53550 | 244 ft | 118 kts | 283° |
| 2026-04-12 06:11 | 38.31457 | -76.54545 | 127 ft | 105 kts | 284° |
| 2026-04-12 06:11 | 38.31580 | -76.55273 | 136 ft | 49 kts | 285° |
| 2026-04-12 06:12 | 38.31632 | -76.55562 | 138 ft | 22 kts | 282° |
| 2026-04-12 06:12 | 38.31638 | -76.55706 | 140 ft | 10 kts | 234° |
| 2026-04-12 06:12 | 38.31591 | -76.55675 | 139 ft | 12 kts | 102° |
| 2026-04-12 06:12 | 38.31569 | -76.55547 | 138 ft | 12 kts | 105° |
| 2026-04-12 06:13 | 38.31554 | -76.55469 | 138 ft | 5 kts | 100° |
| 2026-04-12 06:13 | 38.31549 | -76.55433 | 138 ft | 6 kts | 97° |
| 2026-04-12 06:13 | 38.31535 | -76.55351 | 138 ft | 13 kts | 109° |
| 2026-04-12 06:13 | 38.31507 | -76.55241 | 136 ft | 12 kts | 102° |
| 2026-04-12 06:14 | 38.31487 | -76.55125 | 134 ft | 16 kts | 103° |
| 2026-04-12 06:14 | 38.31464 | -76.54989 | 132 ft | 14 kts | 103° |
| 2026-04-12 06:14 | 38.31404 | -76.54966 | 132 ft | 5 kts | 190° |
| 2026-04-12 06:14 | 38.31382 | -76.54929 | 132 ft | 4 kts | 46° |
| 2026-04-12 06:15 | 38.31396 | -76.54941 | 132 ft | 4 kts | 280° |
| 2026-04-12 06:15 | 38.31407 | -76.54957 | 132 ft | 0 kts | 352° |